createdAt,value
2018-10-03T00:01:43.831Z,11.51
2018-10-03T00:05:06.270Z,11.55
2018-10-03T00:08:28.865Z,11.62
2018-10-03T00:11:51.381Z,11.70
2018-10-03T00:15:13.948Z,11.71
2018-10-03T00:18:36.497Z,11.71
2018-10-03T00:21:59.211Z,11.71
2018-10-03T00:25:22.034Z,11.70
2018-10-03T00:28:45.015Z,11.76
2018-10-03T00:32:07.898Z,11.81
2018-10-03T00:35:30.715Z,11.81
2018-10-03T00:38:53.656Z,11.73
2018-10-03T00:42:16.423Z,11.70
2018-10-03T00:45:39.177Z,11.59
2018-10-03T00:49:02.014Z,11.56
2018-10-03T00:52:24.487Z,11.61
2018-10-03T00:55:46.992Z,11.72
2018-10-03T00:59:09.698Z,11.64
2018-10-03T01:02:32.510Z,11.71
2018-10-03T01:05:56.281Z,11.66
2018-10-03T01:09:19.036Z,11.81
2018-10-03T01:12:42.845Z,11.91
2018-10-03T01:17:08.728Z,11.86
2018-10-03T01:20:31.661Z,11.81
2018-10-03T01:23:54.393Z,11.81
2018-10-03T01:27:17.163Z,11.91
2018-10-03T01:30:39.938Z,11.73
2018-10-03T01:34:02.909Z,11.90
2018-10-03T01:37:26.129Z,11.77
2018-10-03T01:40:49.815Z,11.89
2018-10-03T01:44:13.662Z,11.84
2018-10-03T01:47:36.465Z,11.84
2018-10-03T01:51:00.173Z,11.82
2018-10-03T01:54:22.910Z,11.76
2018-10-03T01:57:46.682Z,11.81
2018-10-03T02:01:09.561Z,11.77
2018-10-03T02:04:32.129Z,11.79
2018-10-03T02:07:54.876Z,11.84
2018-10-03T02:11:18.320Z,11.90
2018-10-03T02:14:42.735Z,11.85
2018-10-03T02:18:05.453Z,11.83
2018-10-03T02:21:28.445Z,11.84
2018-10-03T02:24:51.316Z,11.80
2018-10-03T02:28:14.169Z,11.87
2018-10-03T02:31:37.132Z,11.98
2018-10-03T02:35:00.049Z,11.99
2018-10-03T02:42:16.682Z,12.29
2018-10-03T02:45:39.521Z,12.26
2018-10-03T02:53:28.213Z,12.52
2018-10-03T02:56:50.965Z,12.45
2018-10-03T03:00:13.765Z,12.41
2018-10-03T03:03:36.547Z,12.50
2018-10-03T03:06:59.300Z,12.57
2018-10-03T03:10:22.699Z,12.59
2018-10-03T03:14:48.339Z,12.67
2018-10-03T03:18:11.231Z,12.82
2018-10-03T03:21:34.056Z,12.95
2018-10-03T03:24:56.900Z,13.25
2018-10-03T03:28:19.531Z,12.90
2018-10-03T03:31:42.264Z,13.03
2018-10-03T03:35:05.075Z,12.91
2018-10-03T03:38:27.784Z,12.68
2018-10-03T03:46:16.456Z,12.68
2018-10-03T03:49:39.288Z,12.76
2018-10-03T03:53:02.004Z,12.47
2018-10-03T03:56:24.745Z,12.41
2018-10-03T03:59:47.531Z,12.14
2018-10-03T04:03:10.315Z,12.00
2018-10-03T04:06:33.040Z,11.87
2018-10-03T04:09:55.640Z,11.80
2018-10-03T04:13:18.401Z,11.71
2018-10-03T04:16:41.083Z,11.62
2018-10-03T04:20:03.872Z,11.67
2018-10-03T04:23:26.594Z,11.52
2018-10-03T04:26:49.307Z,11.45
2018-10-03T04:30:11.865Z,11.46
2018-10-03T04:33:34.524Z,11.34
2018-10-03T04:36:57.066Z,11.27
2018-10-03T04:40:19.545Z,11.34
2018-10-03T04:43:42.058Z,11.54
2018-10-03T04:47:04.732Z,11.80
2018-10-03T04:50:27.581Z,11.89
2018-10-03T04:58:15.867Z,12.75
2018-10-03T05:01:38.237Z,12.67
2018-10-03T05:05:00.634Z,12.46
2018-10-03T05:08:23.084Z,12.51
2018-10-03T05:11:45.679Z,12.71
2018-10-03T05:15:09.187Z,13.12
2018-10-03T05:18:31.855Z,13.70
2018-10-03T05:21:54.672Z,13.84
2018-10-03T05:25:17.554Z,14.14
2018-10-03T05:28:40.283Z,13.26
2018-10-03T05:32:03.051Z,12.60
2018-10-03T05:35:25.746Z,12.64
2018-10-03T05:38:51.360Z,12.94
2018-10-03T05:42:44.741Z,12.77
2018-10-03T05:46:07.364Z,12.32
2018-10-03T05:49:30.172Z,12.30
2018-10-03T05:52:52.902Z,11.87
2018-10-03T05:56:15.833Z,12.01
2018-10-03T05:59:38.579Z,12.10
2018-10-03T06:03:01.329Z,11.89
2018-10-03T06:06:24.095Z,11.95
2018-10-03T06:09:46.960Z,11.87
2018-10-03T06:13:09.484Z,11.84
2018-10-03T06:16:32.091Z,11.88
2018-10-03T06:19:54.786Z,11.91
2018-10-03T06:23:17.596Z,12.05
2018-10-03T06:26:47.157Z,11.99
2018-10-03T06:30:10.063Z,12.03
2018-10-03T06:33:47.605Z,12.05
2018-10-03T06:37:10.481Z,12.18
2018-10-03T06:40:33.355Z,12.25
2018-10-03T06:43:55.860Z,12.38
2018-10-03T06:47:18.545Z,12.41
2018-10-03T06:50:41.142Z,12.44
2018-10-03T06:54:03.849Z,12.70
2018-10-03T06:57:26.567Z,12.62
2018-10-03T07:00:49.246Z,12.64
2018-10-03T07:05:15.007Z,12.72
2018-10-03T07:08:38.531Z,12.65
2018-10-03T07:12:02.063Z,12.91
2018-10-03T07:15:24.489Z,12.76
2018-10-03T07:18:46.932Z,12.96
2018-10-03T07:22:11.305Z,13.04
2018-10-03T07:25:33.692Z,13.22
2018-10-03T07:28:56.055Z,13.00
2018-10-03T07:32:18.655Z,13.22
2018-10-03T07:35:41.111Z,13.50
2018-10-03T07:39:05.041Z,13.28
2018-10-03T07:42:27.630Z,13.45
2018-10-03T07:45:50.128Z,13.66
2018-10-03T07:49:12.500Z,13.31
2018-10-03T07:52:35.014Z,13.32
2018-10-03T07:55:57.429Z,13.28
2018-10-03T07:59:19.844Z,13.25
2018-10-03T08:02:42.272Z,13.28
2018-10-03T08:06:04.650Z,13.38
2018-10-03T08:09:27.029Z,13.42
2018-10-03T08:12:49.394Z,13.75
2018-10-03T08:16:11.769Z,13.65
2018-10-03T08:19:34.179Z,13.53
2018-10-03T08:22:56.554Z,13.58
2018-10-03T08:26:19.006Z,13.78
2018-10-03T08:29:42.436Z,13.78
2018-10-03T08:33:04.936Z,13.61
2018-10-03T08:36:27.357Z,13.66
2018-10-03T08:39:49.825Z,13.42
2018-10-03T08:43:12.189Z,13.68
2018-10-03T08:46:35.644Z,13.74
2018-10-03T08:49:59.044Z,13.57
2018-10-03T08:53:21.579Z,13.72
2018-10-03T08:56:44.029Z,13.84
2018-10-03T09:00:06.880Z,13.60
2018-10-03T09:03:31.563Z,13.64
2018-10-03T09:06:54.261Z,13.54
2018-10-03T09:10:16.920Z,13.75
2018-10-03T09:13:41.572Z,13.71
2018-10-03T09:17:06.321Z,13.83
2018-10-03T09:20:30.071Z,13.93
2018-10-03T09:23:53.888Z,13.99
2018-10-03T09:27:20.938Z,14.24
2018-10-03T09:30:43.690Z,13.72
2018-10-03T09:34:06.497Z,13.91
2018-10-03T09:37:31.336Z,13.92
2018-10-03T09:40:54.163Z,14.02
2018-10-03T09:44:18.013Z,14.32
2018-10-03T09:47:42.058Z,14.26
2018-10-03T09:51:05.060Z,14.36
2018-10-03T09:54:28.899Z,14.12
2018-10-03T09:57:51.858Z,13.93
2018-10-03T10:01:19.119Z,13.84
2018-10-03T10:04:41.860Z,14.11
2018-10-03T10:08:04.691Z,14.09
2018-10-03T10:11:27.585Z,14.13
2018-10-03T10:14:50.321Z,14.41
2018-10-03T10:18:13.242Z,13.92
2018-10-03T10:21:36.001Z,14.30
2018-10-03T10:24:58.503Z,14.43
2018-10-03T10:28:21.050Z,14.78
2018-10-03T10:31:43.823Z,14.47
2018-10-03T10:35:06.698Z,14.25
2018-10-03T10:38:29.497Z,14.26
2018-10-03T10:41:52.258Z,14.38
2018-10-03T10:45:15.422Z,14.43
2018-10-03T10:48:38.213Z,14.36
2018-10-03T10:52:02.412Z,14.03
2018-10-03T10:55:24.812Z,14.17
2018-10-03T10:58:48.337Z,14.56
2018-10-03T11:02:10.869Z,14.68
2018-10-03T11:09:26.991Z,15.36
2018-10-03T11:12:49.510Z,15.60
2018-10-03T11:16:12.151Z,15.61
2018-10-03T11:19:34.692Z,15.15
2018-10-03T11:22:57.117Z,15.24
2018-10-03T11:26:19.739Z,15.12
2018-10-03T11:29:42.285Z,14.72
2018-10-03T11:33:04.965Z,14.80
2018-10-03T11:37:31.793Z,14.71
2018-10-03T11:40:55.725Z,14.43
2018-10-03T11:44:18.533Z,14.59
2018-10-03T11:47:42.393Z,14.73
2018-10-03T11:51:04.872Z,14.64
2018-10-03T11:54:27.292Z,14.66
2018-10-03T11:57:49.723Z,15.01
2018-10-03T12:01:12.273Z,14.84
2018-10-03T12:04:34.728Z,14.91
2018-10-03T12:07:57.226Z,14.75
2018-10-03T12:11:19.826Z,14.67
2018-10-03T12:14:43.340Z,14.48
2018-10-03T12:18:05.969Z,14.41
2018-10-03T12:21:28.760Z,14.59
2018-10-03T12:24:51.413Z,14.70
2018-10-03T12:28:14.144Z,15.17
2018-10-03T12:31:36.917Z,15.14
2018-10-03T12:34:59.758Z,14.64
2018-10-03T12:38:22.519Z,14.56
2018-10-03T12:41:45.368Z,14.56
2018-10-03T12:45:08.106Z,15.10
2018-10-03T12:48:30.863Z,15.33
2018-10-03T12:51:53.573Z,15.37
2018-10-03T12:55:17.049Z,15.13
2018-10-03T12:58:39.665Z,15.19
2018-10-03T13:02:02.152Z,14.82
2018-10-03T13:05:24.859Z,15.17
2018-10-03T13:08:47.545Z,15.12
2018-10-03T13:12:11.093Z,15.26
2018-10-03T13:15:34.766Z,15.48
2018-10-03T13:18:57.466Z,15.37
2018-10-03T13:22:20.333Z,14.77
2018-10-03T13:25:43.000Z,14.73
2018-10-03T13:29:05.538Z,14.85
2018-10-03T13:32:28.017Z,15.03
2018-10-03T13:35:50.706Z,15.58
2018-10-03T13:39:13.266Z,15.42
2018-10-03T13:42:36.015Z,14.98
2018-10-03T13:45:58.935Z,14.99
2018-10-03T13:49:22.620Z,15.17
2018-10-03T13:52:45.424Z,15.55
2018-10-03T13:56:08.474Z,15.42
2018-10-03T13:59:31.418Z,15.71
2018-10-03T14:02:54.296Z,15.46
2018-10-03T14:06:18.334Z,15.61
2018-10-03T14:09:41.193Z,15.28
2018-10-03T14:13:34.740Z,15.48
2018-10-03T14:16:57.600Z,15.63
2018-10-03T14:20:20.402Z,15.52
2018-10-03T14:23:43.969Z,15.78
2018-10-03T14:27:06.690Z,15.29
2018-10-03T14:30:30.636Z,15.35
2018-10-03T14:33:53.106Z,15.42
2018-10-03T14:37:15.679Z,15.85
2018-10-03T14:40:38.434Z,15.55
2018-10-03T14:44:02.219Z,15.20
2018-10-03T14:47:25.069Z,15.06
2018-10-03T14:50:48.887Z,15.01
2018-10-03T14:54:11.847Z,15.01
2018-10-03T14:57:34.601Z,14.87
2018-10-03T15:00:58.439Z,14.95
2018-10-03T15:04:20.896Z,15.09
2018-10-03T15:07:43.458Z,15.34
2018-10-03T15:11:06.411Z,15.32
2018-10-03T15:14:29.114Z,15.37
2018-10-03T15:17:51.970Z,15.28
2018-10-03T15:21:14.677Z,15.32
2018-10-03T15:24:37.527Z,15.06
2018-10-03T15:28:00.376Z,15.10
2018-10-03T15:31:24.001Z,15.03
2018-10-03T15:34:46.696Z,14.89
2018-10-03T15:38:09.562Z,14.88
2018-10-03T15:41:32.467Z,14.70
2018-10-03T15:44:55.000Z,14.62
2018-10-03T15:48:17.791Z,14.63
2018-10-03T15:51:41.469Z,14.67
2018-10-03T15:55:04.520Z,14.50
2018-10-03T15:58:27.337Z,14.46
2018-10-03T16:01:50.222Z,14.44
2018-10-03T16:05:13.151Z,14.54
2018-10-03T16:08:36.069Z,14.54
2018-10-03T16:11:59.097Z,14.64
2018-10-03T16:15:22.101Z,14.52
2018-10-03T16:18:45.590Z,14.75
2018-10-03T16:22:08.541Z,14.58
2018-10-03T16:25:31.478Z,14.49
2018-10-03T16:28:54.407Z,14.37
2018-10-03T16:32:17.256Z,14.61
2018-10-03T16:35:40.092Z,14.59
2018-10-03T16:39:04.285Z,14.42
2018-10-03T16:43:29.767Z,14.43
2018-10-03T16:46:52.494Z,15.05
2018-10-03T16:50:15.195Z,14.40
2018-10-03T16:53:37.950Z,14.17
2018-10-03T16:57:00.649Z,13.84
2018-10-03T17:00:23.322Z,13.69
2018-10-03T17:03:45.944Z,13.48
2018-10-03T17:07:08.649Z,13.29
2018-10-03T17:10:31.421Z,13.48
2018-10-03T17:14:33.501Z,13.18
2018-10-03T17:17:57.296Z,13.01
2018-10-03T17:21:20.142Z,12.65
2018-10-03T17:24:43.790Z,12.42
2018-10-03T17:28:06.529Z,12.46
2018-10-03T17:31:29.701Z,12.42
2018-10-03T17:34:52.482Z,12.21
2018-10-03T17:38:15.157Z,12.24
2018-10-03T17:41:38.004Z,12.16
2018-10-03T17:45:00.804Z,11.90
2018-10-03T17:48:23.688Z,12.06
2018-10-03T17:51:49.594Z,11.89
2018-10-03T17:55:13.180Z,11.93
2018-10-03T17:58:35.742Z,11.79
2018-10-03T18:02:01.928Z,11.80
2018-10-03T18:05:25.439Z,11.46
2018-10-03T18:08:47.911Z,11.39
2018-10-03T18:12:10.416Z,11.55
2018-10-03T18:15:32.962Z,11.68
2018-10-03T18:18:55.574Z,11.41
2018-10-03T18:22:18.232Z,11.19
2018-10-03T18:25:40.969Z,11.10
2018-10-03T18:29:03.633Z,11.03
2018-10-03T18:32:26.406Z,11.02
2018-10-03T18:35:49.122Z,11.04
2018-10-03T18:39:11.888Z,10.69
2018-10-03T18:42:34.519Z,10.81
2018-10-03T18:45:57.244Z,10.70
2018-10-03T18:49:19.906Z,10.32
2018-10-03T18:52:42.731Z,10.39
2018-10-03T18:56:05.349Z,10.60
2018-10-03T18:59:31.099Z,10.73
2018-10-03T19:02:53.826Z,10.61
2018-10-03T19:06:16.622Z,10.39
2018-10-03T19:09:39.253Z,10.15
2018-10-03T19:13:02.918Z,10.07
2018-10-03T19:16:25.295Z,10.30
2018-10-03T19:19:47.783Z,10.05
2018-10-03T19:23:10.277Z,10.33
2018-10-03T19:26:32.788Z,10.20
2018-10-03T19:33:50.249Z,10.29
2018-10-03T19:37:13.392Z,10.23
2018-10-03T19:42:44.696Z,10.55
2018-10-03T19:46:07.911Z,10.03
2018-10-03T19:57:05.420Z,10.55
2018-10-03T20:00:28.447Z,10.51
2018-10-03T20:03:51.266Z,10.35
2018-10-03T20:07:14.408Z,10.35
2018-10-03T20:10:42.888Z,10.49
2018-10-03T20:14:20.823Z,10.47
2018-10-03T20:21:41.460Z,10.34
2018-10-03T20:25:07.093Z,10.45
2018-10-03T20:41:13.992Z,9.93
2018-10-03T20:44:45.428Z,10.02
2018-10-03T20:48:17.211Z,9.97
2018-10-03T20:57:50.193Z,9.71
2018-10-03T21:05:12.465Z,10.02
2018-10-03T21:08:59.609Z,10.24
2018-10-03T21:12:29.808Z,10.28
2018-10-03T21:15:58.745Z,10.12
2018-10-03T21:19:38.620Z,9.73
2018-10-03T21:26:58.160Z,9.73
2018-10-03T21:30:29.979Z,10.02
2018-10-03T21:33:52.908Z,10.11
2018-10-03T21:37:15.812Z,9.82
2018-10-03T21:40:38.584Z,9.19
2018-10-03T21:44:02.381Z,9.45
2018-10-03T21:47:27.252Z,9.42
2018-10-03T21:50:50.098Z,9.17
2018-10-03T21:54:12.897Z,9.24
2018-10-03T21:57:39.147Z,9.38
2018-10-03T22:01:03.989Z,9.32
2018-10-03T22:04:26.690Z,8.93
2018-10-03T22:07:49.621Z,8.68
2018-10-03T22:11:12.500Z,9.18
2018-10-03T22:14:35.387Z,9.07
2018-10-03T22:17:59.267Z,8.76
2018-10-03T22:21:23.071Z,8.84
2018-10-03T22:24:46.056Z,8.80
2018-10-03T22:28:09.001Z,8.57
2018-10-03T22:31:32.438Z,8.47
2018-10-03T22:34:55.314Z,8.36
2018-10-03T22:38:18.231Z,8.62
2018-10-03T22:41:41.025Z,8.37
2018-10-03T22:45:03.916Z,8.26
2018-10-03T22:48:26.712Z,8.36
2018-10-03T22:53:19.130Z,8.34
2018-10-03T22:56:41.867Z,8.29
2018-10-03T23:00:05.374Z,8.12
2018-10-03T23:03:28.303Z,8.36
2018-10-03T23:06:51.206Z,8.19
2018-10-03T23:10:14.100Z,8.38
2018-10-03T23:13:37.054Z,7.94
2018-10-03T23:16:59.910Z,7.86
2018-10-03T23:20:23.688Z,7.97
2018-10-03T23:23:46.536Z,7.96
2018-10-03T23:27:09.379Z,7.94
2018-10-03T23:30:32.368Z,7.94
2018-10-03T23:33:55.301Z,7.97
2018-10-03T23:37:18.071Z,7.91
2018-10-03T23:40:41.180Z,7.76
2018-10-03T23:44:04.083Z,7.84
2018-10-03T23:47:28.049Z,7.95
2018-10-03T23:50:50.713Z,7.63
2018-10-03T23:54:14.367Z,7.71
2018-10-03T23:57:40.329Z,7.49
